Time;durP1;ratioP1;P1;durP2;ratioP2;P2;SDS_P1;SDS_P2;PMS_P1;PMS_P2;Temp;Humidity;BMP_temperature;BMP_pressure;BME280_temperature;BME280_humidity;BME280_pressure;Samples;Min_cycle;Max_cycle;Signal;HPM_P1;HPM_P2
2021/06/06 00:04:22;;;;;;;0.10;0.10;;;;;;;17.83;88.75;102110.69;10554029;28;20019;-64
2021/06/06 00:09:23;;;;;;;0.10;0.10;;;;;;;17.74;88.53;102109.03;10564060;28;20050;-66
2021/06/06 00:14:26;;;;;;;0.10;0.10;;;;;;;17.64;88.17;102110.09;10554272;28;20428;-64
2021/06/06 00:19:28;;;;;;;0.10;0.10;;;;;;;17.56;88.21;102104.72;10555154;28;20023;-64
2021/06/06 00:24:31;;;;;;;0.10;0.10;;;;;;;17.49;88.21;102098.34;10537863;22;20044;-62
2021/06/06 00:29:32;;;;;;;0.10;0.10;;;;;;;17.40;88.58;102107.47;10491076;28;20036;-62
2021/06/06 00:34:32;;;;;;;0.10;0.10;;;;;;;17.31;88.89;102108.53;10453392;28;20032;-62
2021/06/06 00:39:33;;;;;;;0.10;0.10;;;;;;;17.26;89.16;102108.19;10453770;28;20035;-63
2021/06/06 00:44:34;;;;;;;0.10;0.10;;;;;;;17.21;89.67;102108.69;10453347;28;20411;-63
2021/06/06 00:49:34;;;;;;;0.10;0.10;;;;;;;17.15;89.50;102109.38;10453083;28;20024;-63
2021/06/06 00:54:39;;;;;;;0.10;0.10;;;;;;;17.07;89.33;102106.69;10461346;28;20031;-63
2021/06/06 00:59:42;;;;;;;0.10;0.10;;;;;;;16.98;89.29;102124.72;10493928;28;20033;-63
2021/06/06 01:04:43;;;;;;;0.10;0.10;;;;;;;16.90;89.23;102128.28;10488225;28;20418;-63
2021/06/06 01:09:44;;;;;;;0.10;0.10;;;;;;;16.83;89.41;102123.72;10459389;28;20450;-62
2021/06/06 01:14:47;;;;;;;0.10;0.10;;;;;;;16.75;89.02;102130.78;10452456;28;20017;-62
2021/06/06 01:20:12;;;;;;;0.50;0.50;;;;;;;16.67;88.79;102122.69;10452247;28;20392;-62
2021/06/06 01:25:21;;;;;;;0.10;0.10;;;;;;;16.61;88.81;102130.56;10471835;28;20032;-62
2021/06/06 01:30:25;;;;;;;0.10;0.10;;;;;;;16.52;88.54;102141.34;10492622;28;20429;-63
2021/06/06 01:35:29;;;;;;;;;;;;;;;16.44;88.35;102135.94;10480314;28;20389;-62
2021/06/06 01:40:33;;;;;;;0.10;0.10;;;;;;;16.32;88.04;102131.03;10450920;28;19912;-62
2021/06/06 01:45:43;;;;;;;0.10;0.10;;;;;;;16.23;88.31;102136.41;10433243;28;20021;-62
2021/06/06 01:50:58;;;;;;;0.10;0.10;;;;;;;16.20;88.63;102126.00;10450534;28;20082;-63
2021/06/06 01:56:02;;;;;;;0.10;0.10;;;;;;;16.16;88.17;102129.16;10476649;28;20368;-63
2021/06/06 02:01:20;;;;;;;0.10;0.10;;;;;;;16.14;88.29;102129.31;10491361;28;20033;-62
2021/06/06 02:06:27;;;;;;;0.10;0.10;;;;;;;16.15;88.43;102127.50;10491322;28;20529;-62
2021/06/06 02:11:38;;;;;;;0.10;0.10;;;;;;;16.14;88.65;102117.72;10454177;28;20422;-62
2021/06/06 02:16:44;;;;;;;0.10;0.10;;;;;;;16.09;89.18;102129.00;10445803;28;20483;-62
2021/06/06 02:21:45;;;;;;;0.10;0.10;;;;;;;16.05;89.53;102120.38;10431721;28;20029;-62
2021/06/06 02:26:50;;;;;;;0.10;0.10;;;;;;;16.02;89.57;102128.78;10467719;28;20029;-63
2021/06/06 02:32:15;;;;;;;0.13;0.13;;;;;;;15.98;89.42;102124.75;10482229;28;20074;-63
2021/06/06 02:37:21;;;;;;;0.10;0.10;;;;;;;15.97;89.97;102135.66;10491484;28;20479;-62
2021/06/06 02:42:27;;;;;;;0.10;0.10;;;;;;;15.92;89.72;102125.41;10455309;28;20017;-63
2021/06/06 02:47:38;;;;;;;0.10;0.10;;;;;;;15.90;89.79;102121.19;10449267;28;20051;-63
2021/06/06 02:52:44;;;;;;;0.10;0.10;;;;;;;15.90;89.78;102123.88;10448795;28;20029;-62
2021/06/06 02:57:51;;;;;;;0.10;0.10;;;;;;;15.86;89.69;102127.91;10491377;28;20029;-62
2021/06/06 03:02:59;;;;;;;0.10;0.10;;;;;;;15.87;89.79;102126.88;10489866;28;20043;-62
2021/06/06 03:08:03;;;;;;;0.10;0.10;;;;;;;15.86;89.27;102127.91;10462019;28;20487;-63
2021/06/06 03:13:24;;;;;;;0.10;0.10;;;;;;;15.86;89.70;102127.91;10449972;28;20040;-63
2021/06/06 03:18:28;;;;;;;0.10;0.10;;;;;;;15.84;89.25;102128.88;10490142;28;20495;-62
2021/06/06 03:23:30;;;;;;;;;;;;;;;15.83;89.83;102132.59;10484219;28;20430;-63
2021/06/06 03:28:34;;;;;;;0.10;0.10;;;;;;;15.83;89.33;102137.13;10489957;28;20335;-63
2021/06/06 03:33:53;;;;;;;0.10;0.10;;;;;;;15.87;89.53;102145.69;10471240;28;20503;-63
2021/06/06 03:50:51;;;;;;;0.10;0.10;;;;;;;15.91;89.17;102149.72;10453913;28;20036;-62
2021/06/06 03:55:52;;;;;;;0.10;0.10;;;;;;;15.91;89.63;102155.97;10463739;28;20125;-63
2021/06/06 04:00:52;;;;;;;0.10;0.10;;;;;;;15.93;89.29;102158.47;10456857;28;20060;-63
2021/06/06 04:05:53;;;;;;;0.10;0.10;;;;;;;15.94;89.60;102158.34;10456655;28;20021;-63
2021/06/06 04:10:54;;;;;;;0.10;0.10;;;;;;;15.94;89.35;102152.09;10456207;28;20017;-63
2021/06/06 04:15:54;;;;;;;0.10;0.10;;;;;;;15.94;89.12;102152.09;10455867;28;20028;-63
2021/06/06 04:20:56;;;;;;;0.10;0.10;;;;;;;15.93;89.11;102162.00;10463999;28;20033;-63
2021/06/06 04:25:57;;;;;;;0.10;0.10;;;;;;;15.95;88.85;102159.16;10474934;28;20337;-63
2021/06/06 04:30:57;;;;;;;0.00;0.00;;;;;;;15.95;88.81;102159.16;10495745;28;20099;-62
2021/06/06 04:35:58;;;;;;;0.10;0.10;;;;;;;15.97;88.73;102167.88;10495906;28;20358;-63
2021/06/06 04:41:03;;;;;;;0.10;0.10;;;;;;;15.99;89.05;102173.97;10483248;28;20035;-63
2021/06/06 04:46:04;;;;;;;0.10;0.10;;;;;;;15.97;88.99;102167.88;10454160;28;20075;-63
2021/06/06 04:51:10;;;;;;;0.10;0.10;;;;;;;15.96;88.74;102177.81;10459614;28;20074;-63
2021/06/06 04:56:13;;;;;;;0.10;0.10;;;;;;;15.97;88.75;102181.31;10489316;28;20103;-63
2021/06/06 05:01:14;;;;;;;0.10;0.10;;;;;;;15.97;88.65;102184.00;10494304;28;20020;-63
2021/06/06 05:06:15;;;;;;;0.00;0.00;;;;;;;16.00;89.21;102175.66;10461580;28;20024;-63
2021/06/06 05:11:16;;;;;;;0.10;0.10;;;;;;;16.02;88.71;102179.00;10477740;28;20032;-63
2021/06/06 05:16:16;;;;;;;0.10;0.10;;;;;;;16.05;89.17;102187.56;10493785;28;20376;-63
2021/06/06 05:21:16;;;;;;;0.00;0.00;;;;;;;16.10;88.77;102191.66;10493310;28;20103;-63
2021/06/06 05:26:17;;;;;;;0.10;0.10;;;;;;;16.11;89.02;102201.38;10484594;28;20423;-63
2021/06/06 05:31:19;;;;;;;0.10;0.10;;;;;;;16.16;89.13;102191.00;10492824;28;20031;-62
2021/06/06 05:36:19;;;;;;;0.10;0.10;;;;;;;16.26;89.12;102192.53;10481408;28;20021;-62
2021/06/06 05:41:20;;;;;;;0.10;0.10;;;;;;;16.36;88.82;102187.03;10460389;28;20131;-62
2021/06/06 05:46:21;;;;;;;0.10;0.10;;;;;;;16.41;88.06;102186.53;10492945;28;20713;-63
2021/06/06 05:51:21;;;;;;;0.10;0.10;;;;;;;16.44;87.68;102197.81;10464566;28;20151;-63
2021/06/06 05:56:22;;;;;;;0.10;0.10;;;;;;;16.49;87.97;102190.09;10476665;28;20021;-62
2021/06/06 06:01:23;;;;;;;0.10;0.10;;;;;;;16.60;87.88;102193.47;10460094;28;20036;-62
2021/06/06 06:06:23;;;;;;;0.10;0.10;;;;;;;16.78;87.53;102193.34;10491644;28;20421;-63
2021/06/06 06:11:24;;;;;;;0.10;0.10;;;;;;;16.98;85.89;102190.16;10491281;28;20312;-63
2021/06/06 06:16:30;;;;;;;0.10;0.10;;;;;;;17.14;85.81;102183.94;10491325;28;20108;-63
2021/06/06 06:21:32;;;;;;;0.10;0.10;;;;;;;17.32;85.41;102175.66;10491249;28;20031;-63
2021/06/06 06:26:32;;;;;;;0.10;0.10;;;;;;;17.49;84.62;102165.69;10485169;28;20070;-63
2021/06/06 06:31:34;;;;;;;0.10;0.10;;;;;;;17.71;83.85;102152.50;10463825;28;20543;-63
2021/06/06 06:36:34;;;;;;;0.10;0.10;;;;;;;18.04;83.34;102164.03;10449856;28;20086;-63
2021/06/06 06:41:35;;;;;;;0.10;0.10;;;;;;;18.22;81.99;102167.28;10449161;28;20419;-66
2021/06/06 06:46:35;;;;;;;0.10;0.10;;;;;;;18.56;81.00;102174.19;10431854;28;20024;-63
2021/06/06 06:51:36;;;;;;;0.10;0.10;;;;;;;18.72;80.17;102178.59;10448952;28;20017;-63
2021/06/06 06:56:36;;;;;;;0.10;0.10;;;;;;;18.70;80.03;102188.72;10480436;28;20070;-63
2021/06/06 07:01:36;;;;;;;0.10;0.10;;;;;;;18.61;79.67;102187.13;10489824;28;20029;-63
2021/06/06 07:06:37;;;;;;;0.10;0.10;;;;;;;18.51;79.94;102195.44;10488131;28;20016;-63
2021/06/06 07:11:38;;;;;;;0.10;0.10;;;;;;;18.43;79.84;102198.19;10489921;28;20013;-63
2021/06/06 07:16:38;;;;;;;0.10;0.10;;;;;;;18.33;80.38;102211.91;10480157;28;20024;-63
2021/06/06 07:21:39;;;;;;;0.10;0.10;;;;;;;18.26;80.75;102210.91;10497788;28;20036;-63
2021/06/06 07:26:42;;;;;;;0.10;0.10;;;;;;;18.31;80.60;102211.25;10492288;28;20471;-62
2021/06/06 07:31:44;;;;;;;;;;;;;;;18.36;81.04;102216.94;10497742;28;20028;-63
2021/06/06 07:36:45;;;;;;;0.10;0.10;;;;;;;18.34;80.45;102227.06;10479702;28;20393;-63
2021/06/06 07:41:46;;;;;;;0.10;0.10;;;;;;;18.35;79.47;102227.91;10467932;28;20063;-63
2021/06/06 07:46:48;;;;;;;0.10;0.10;;;;;;;18.37;80.21;102224.03;10475686;28;20023;-63
2021/06/06 07:51:49;;;;;;;0.10;0.10;;;;;;;18.46;79.14;102220.25;10496769;28;20028;-62
2021/06/06 07:56:49;;;;;;;0.10;0.10;;;;;;;18.47;79.05;102226.47;10492070;28;20016;-62
2021/06/06 08:01:50;;;;;;;0.10;0.10;;;;;;;18.45;79.48;102225.84;10489293;28;20768;-63
2021/06/06 08:06:50;;;;;;;0.10;0.10;;;;;;;18.51;79.50;102223.25;10478267;28;20039;-63
2021/06/06 08:11:50;;;;;;;0.10;0.10;;;;;;;18.59;79.06;102229.63;10471417;28;20099;-63
2021/06/06 08:16:51;;;;;;;0.10;0.10;;;;;;;18.87;77.58;102228.13;10495760;28;20399;-63
2021/06/06 08:21:52;;;;;;;0.10;0.10;;;;;;;19.20;77.41;102226.00;10495134;28;20313;-63
2021/06/06 08:26:52;;;;;;;0.10;0.10;;;;;;;19.62;76.49;102213.78;10489122;28;20047;-63
2021/06/06 08:31:52;;;;;;;0.10;0.10;;;;;;;19.61;73.01;102213.97;10494598;28;20024;-63
2021/06/06 08:36:56;;;;;;;0.10;0.10;;;;;;;19.71;74.55;102211.84;10494931;28;20009;-63
2021/06/06 08:42:05;;;;;;;0.10;0.10;;;;;;;19.81;73.71;102214.25;10476102;28;20044;-63
2021/06/06 08:47:21;;;;;;;0.20;0.20;;;;;;;20.07;73.21;102220.06;10471019;28;20102;-63
2021/06/06 08:52:49;;;;;;;0.10;0.10;;;;;;;20.08;72.53;102220.88;10487616;28;20024;-63
2021/06/06 08:57:53;;;;;;;0.10;0.10;;;;;;;20.03;73.17;102226.03;10485708;28;20024;-63
2021/06/06 09:03:13;;;;;;;0.10;0.10;;;;;;;20.02;72.35;102229.75;10493697;28;20082;-63
2021/06/06 09:08:25;;;;;;;0.10;0.10;;;;;;;19.72;73.40;102232.44;10479491;28;20063;-63
2021/06/06 09:13:30;;;;;;;0.10;0.10;;;;;;;19.49;74.21;102237.03;10465023;28;20028;-63
2021/06/06 09:18:31;;;;;;;0.10;0.10;;;;;;;19.41;74.85;102238.81;10484925;28;20384;-63
2021/06/06 09:23:32;;;;;;;0.10;0.10;;;;;;;19.39;74.36;102251.66;10487227;28;20024;-63
2021/06/06 09:28:37;;;;;;;0.10;0.10;;;;;;;19.51;74.13;102248.53;10492120;28;20025;-63
2021/06/06 09:33:40;;;;;;;0.10;0.10;;;;;;;19.63;74.85;102247.03;10492111;28;20013;-64
2021/06/06 09:38:42;;;;;;;0.10;0.10;;;;;;;19.62;74.71;102253.47;10491542;28;20028;-63
2021/06/06 09:43:56;;;;;;;0.10;0.10;;;;;;;19.51;74.91;102252.06;10491337;28;20023;-63
2021/06/06 09:49:14;;;;;;;0.10;0.10;;;;;;;19.51;74.91;102254.75;10486356;28;20032;-63
2021/06/06 09:54:24;;;;;;;0.10;0.10;;;;;;;19.52;74.36;102261.00;10454049;28;20031;-63
2021/06/06 09:59:28;;;;;;;0.10;0.10;;;;;;;19.44;75.30;102267.34;10491649;28;20028;-63
2021/06/06 10:04:35;;;;;;;0.10;0.10;;;;;;;19.47;76.20;102266.97;10483282;28;20017;-63
2021/06/06 10:09:35;;;;;;;0.10;0.10;;;;;;;19.51;75.50;102279.06;10491290;28;20036;-63
2021/06/06 10:14:50;;;;;;;0.10;0.10;;;;;;;19.56;75.60;102262.31;10460325;28;20403;-63
2021/06/06 10:20:02;;;;;;;0.10;0.10;;;;;;;19.61;76.62;102263.44;10449853;28;20045;-63
2021/06/06 10:25:10;;;;;;;0.10;0.10;;;;;;;19.73;75.44;102271.97;10478073;28;20086;-63
2021/06/06 10:30:16;;;;;;;0.00;0.00;;;;;;;19.75;75.77;102266.38;10490333;28;20399;-63
2021/06/06 10:35:35;;;;;;;0.10;0.10;;;;;;;19.77;75.86;102275.16;10458701;28;20020;-63
2021/06/06 10:40:43;;;;;;;0.10;0.10;;;;;;;19.75;75.47;102275.34;10460346;28;20102;-63
2021/06/06 10:45:48;;;;;;;0.10;0.10;;;;;;;19.80;75.85;102272.06;10449035;28;20272;-63
2021/06/06 10:50:53;;;;;;;0.10;0.10;;;;;;;19.78;75.31;102272.28;10467051;28;20024;-63
2021/06/06 10:56:08;;;;;;;0.10;0.10;;;;;;;19.87;75.30;102267.63;10484206;28;20029;-63
2021/06/06 11:01:29;;;;;;;0.10;0.10;;;;;;;19.98;74.95;102272.53;10486280;28;20048;-63
2021/06/06 11:06:31;;;;;;;0.10;0.10;;;;;;;20.16;74.21;102264.06;10489250;28;20500;-63
2021/06/06 11:11:37;;;;;;;0.10;0.10;;;;;;;20.08;74.42;102266.88;10490705;28;20020;-63
2021/06/06 11:16:43;;;;;;;0.10;0.10;;;;;;;19.93;75.92;102277.69;10491891;28;20024;-63
2021/06/06 11:22:07;;;;;;;0.10;0.10;;;;;;;19.83;75.45;102279.81;10472369;28;20044;-63
2021/06/06 11:27:10;;;;;;;0.10;0.10;;;;;;;19.81;75.32;102281.84;10485568;28;20054;-62
2021/06/06 11:32:21;;;;;;;0.10;0.10;;;;;;;19.72;75.15;102280.25;10490895;28;20021;-63
2021/06/06 11:37:21;;;;;;;0.08;0.08;;;;;;;19.70;76.20;102279.63;10490922;28;20046;-63
2021/06/06 11:42:29;;;;;;;0.10;0.10;;;;;;;19.71;76.08;102278.59;10490377;28;20032;-63
2021/06/06 11:47:52;;;;;;;0.10;0.10;;;;;;;19.66;75.94;102279.13;10489082;28;20027;-62
2021/06/06 11:53:00;;;;;;;0.10;0.10;;;;;;;19.47;76.81;102285.88;10482620;28;20067;-63
2021/06/06 11:58:26;;;;;;;0.10;0.10;;;;;;;19.35;77.21;102281.94;10464914;28;20249;-63
2021/06/06 12:03:32;;;;;;;0.00;0.00;;;;;;;19.33;77.47;102289.38;10495879;28;20034;-62
2021/06/06 12:08:35;;;;;;;0.10;0.10;;;;;;;19.28;77.86;102279.09;10496074;28;20027;-62
2021/06/06 12:13:39;;;;;;;0.10;0.10;;;;;;;19.30;77.88;102284.34;10492849;28;20099;-63
2021/06/06 12:18:42;;;;;;;0.00;0.00;;;;;;;19.25;77.50;102289.44;10495807;28;20021;-63
2021/06/06 12:23:45;;;;;;;0.10;0.10;;;;;;;19.14;77.72;102285.28;10472009;22;20043;-64
2021/06/06 12:28:49;;;;;;;0.00;0.00;;;;;;;18.99;78.12;102288.81;10548529;28;20758;-65
2021/06/06 12:33:50;;;;;;;0.10;0.10;;;;;;;18.94;78.83;102288.50;10579171;28;20030;-66
2021/06/06 12:38:55;;;;;;;0.10;0.10;;;;;;;18.97;78.28;102288.13;10572177;28;20031;-64
2021/06/06 12:43:58;;;;;;;0.10;0.10;;;;;;;19.08;77.89;102291.41;10553052;28;20106;-66
2021/06/06 12:49:06;;;;;;;0.10;0.10;;;;;;;19.26;77.57;102277.59;10569899;28;20050;-64
2021/06/06 12:54:23;;;;;;;0.10;0.10;;;;;;;19.37;77.28;102285.28;10571414;27;20028;-65
2021/06/06 12:59:29;;;;;;;0.10;0.10;;;;;;;19.42;76.37;102281.00;10576331;28;20110;-64
2021/06/06 13:04:30;;;;;;;0.10;0.10;;;;;;;19.52;76.71;102288.03;10578459;28;20020;-67
2021/06/06 13:09:42;;;;;;;0.10;0.10;;;;;;;19.51;76.04;102287.19;10577505;28;20072;-65
2021/06/06 13:15:17;;;;;;;0.10;0.10;;;;;;;19.49;76.68;102285.69;10575998;28;20443;-65
2021/06/06 13:20:30;;;;;;;0.10;0.10;;;;;;;19.45;75.90;102288.75;10543353;28;20062;-65
2021/06/06 13:25:54;;;;;;;0.10;0.10;;;;;;;19.48;76.42;102284.00;10555472;28;20019;-67
2021/06/06 13:31:18;;;;;;;0.10;0.10;;;;;;;19.58;76.65;102281.91;10576751;28;20023;-67
2021/06/06 13:36:19;;;;;;;0.10;0.10;;;;;;;19.83;74.84;102280.66;10574548;28;20113;-66
2021/06/06 13:41:20;;;;;;;0.10;0.10;;;;;;;20.10;74.97;102275.63;10535816;28;20102;-65
2021/06/06 13:46:21;;;;;;;0.10;0.10;;;;;;;20.26;73.37;102269.19;10535402;28;20625;-65
2021/06/06 13:51:21;;;;;;;0.10;0.10;;;;;;;20.41;72.94;102266.47;10532674;28;20031;-65
2021/06/06 13:56:22;;;;;;;0.10;0.10;;;;;;;20.53;72.39;102278.50;10543528;28;20024;-65
2021/06/06 14:01:22;;;;;;;0.10;0.10;;;;;;;20.48;72.15;102283.63;10533426;28;20016;-65
2021/06/06 14:06:23;;;;;;;0.10;0.10;;;;;;;20.51;72.13;102280.53;10542595;28;20015;-65
2021/06/06 14:11:31;;;;;;;0.10;0.10;;;;;;;20.81;73.24;102275.91;10573631;28;20020;-65
2021/06/06 14:16:32;;;;;;;0.10;0.10;;;;;;;20.96;71.68;102276.69;10575663;28;20069;-64
2021/06/06 14:21:32;;;;;;;0.10;0.10;;;;;;;21.01;71.16;102281.53;10574052;28;20435;-66
2021/06/06 14:26:35;;;;;;;0.10;0.10;;;;;;;20.94;70.45;102291.44;10564759;28;20019;-66
2021/06/06 14:31:36;;;;;;;0.10;0.10;;;;;;;20.78;72.74;102290.66;10567230;28;20019;-66
2021/06/06 14:36:38;;;;;;;0.10;0.10;;;;;;;20.75;71.66;102290.22;10574691;28;20446;-66
2021/06/06 14:41:40;;;;;;;0.10;0.10;;;;;;;20.59;73.08;102280.44;10572705;28;20153;-64
2021/06/06 14:46:40;;;;;;;0.10;0.10;;;;;;;20.67;72.32;102277.63;10572737;28;20019;-66
2021/06/06 14:51:42;;;;;;;0.10;0.10;;;;;;;20.76;72.64;102286.47;10573835;28;20023;-66
2021/06/06 14:56:43;;;;;;;0.10;0.10;;;;;;;20.77;72.06;102289.00;10563894;28;20530;-67
2021/06/06 15:01:44;;;;;;;0.10;0.10;;;;;;;20.58;72.19;102287.72;10573664;28;20095;-66
2021/06/06 15:06:44;;;;;;;0.00;0.00;;;;;;;20.51;72.09;102284.09;10574211;28;20095;-64
2021/06/06 15:11:44;;;;;;;0.10;0.10;;;;;;;20.42;71.27;102284.38;10573022;28;20091;-65
2021/06/06 15:16:45;;;;;;;0.10;0.10;;;;;;;20.44;70.83;102271.50;10558677;28;20051;-64
2021/06/06 15:21:47;;;;;;;0.10;0.10;;;;;;;20.43;72.19;102276.06;10527755;28;20028;-65
2021/06/06 15:26:47;;;;;;;0.10;0.10;;;;;;;20.34;71.21;102272.63;10531777;28;20382;-66
2021/06/06 15:31:48;;;;;;;0.10;0.10;;;;;;;20.25;72.07;102265.66;10533580;28;20022;-66
2021/06/06 15:36:50;;;;;;;0.10;0.10;;;;;;;20.31;73.25;102278.41;10576622;28;20197;-66
2021/06/06 15:41:50;;;;;;;0.10;0.10;;;;;;;20.39;71.23;102268.50;10571285;28;20024;-66
2021/06/06 15:46:51;;;;;;;0.10;0.10;;;;;;;20.40;70.57;102278.31;10555158;28;20371;-65
2021/06/06 15:51:54;;;;;;;0.10;0.10;;;;;;;20.37;69.43;102276.00;10538896;28;20034;-64
2021/06/06 15:56:55;;;;;;;0.10;0.10;;;;;;;20.40;68.92;102271.03;10548468;28;20076;-66
2021/06/06 16:01:59;;;;;;;0.10;0.10;;;;;;;20.63;68.58;102264.69;10554652;28;20030;-66
2021/06/06 16:07:00;;;;;;;0.10;0.10;;;;;;;20.86;67.44;102261.81;10578849;28;20074;-66
2021/06/06 16:12:00;;;;;;;0.10;0.10;;;;;;;20.94;67.62;102256.25;10570256;28;20054;-65
2021/06/06 16:17:00;;;;;;;0.10;0.10;;;;;;;20.85;66.46;102260.13;10577739;28;20414;-66
2021/06/06 16:22:01;;;;;;;0.10;0.10;;;;;;;20.92;67.16;102253.75;10579530;28;20031;-66
2021/06/06 16:27:01;;;;;;;0.10;0.10;;;;;;;20.98;67.24;102260.25;10574151;28;20027;-65
2021/06/06 16:32:03;;;;;;;0.10;0.10;;;;;;;20.86;67.25;102250.97;10542336;28;20382;-66
2021/06/06 16:37:03;;;;;;;0.08;0.08;;;;;;;20.67;67.03;102255.97;10576120;28;20102;-65
2021/06/06 16:42:04;;;;;;;0.10;0.10;;;;;;;20.60;68.41;102256.94;10579672;28;20148;-66
2021/06/06 16:47:05;;;;;;;0.10;0.10;;;;;;;20.47;67.35;102254.88;10579243;28;20007;-65
2021/06/06 16:52:05;;;;;;;0.10;0.10;;;;;;;20.38;68.16;102266.84;10547362;28;20031;-65
2021/06/06 16:57:06;;;;;;;0.10;0.10;;;;;;;20.33;68.51;102256.56;10536920;28;20024;-66
2021/06/06 17:02:08;;;;;;;0.10;0.10;;;;;;;20.20;67.98;102259.94;10546810;28;20539;-65
2021/06/06 17:07:09;;;;;;;0.10;0.10;;;;;;;20.01;69.04;102272.19;10559887;28;20024;-67
2021/06/06 17:12:09;;;;;;;0.10;0.10;;;;;;;19.82;69.89;102273.56;10569550;28;20467;-67
2021/06/06 17:17:10;;;;;;;0.10;0.10;;;;;;;19.70;71.14;102268.81;10561249;28;20565;-65
2021/06/06 17:22:10;;;;;;;0.10;0.10;;;;;;;19.49;72.21;102274.88;10564940;28;20027;-67
2021/06/06 17:27:10;;;;;;;0.10;0.10;;;;;;;19.41;71.74;102276.63;10573144;28;20024;-66
2021/06/06 17:32:11;;;;;;;0.10;0.10;;;;;;;19.32;71.83;102277.75;10538894;28;20039;-66
2021/06/06 17:37:11;;;;;;;0.10;0.10;;;;;;;19.30;72.08;102276.25;10553751;28;20498;-65
2021/06/06 17:42:12;;;;;;;0.10;0.10;;;;;;;19.21;72.79;102281.69;10576256;28;20261;-66
2021/06/06 17:47:12;;;;;;;0.10;0.10;;;;;;;19.12;73.43;102282.78;10576698;28;20012;-66
2021/06/06 17:52:13;;;;;;;0.10;0.10;;;;;;;18.99;73.81;102285.22;10543385;28;20020;-65
2021/06/06 17:57:13;;;;;;;0.10;0.10;;;;;;;18.87;73.95;102284.81;10539356;28;20020;-65
2021/06/06 18:02:14;;;;;;;0.10;0.10;;;;;;;18.75;74.87;102289.78;10531061;28;20030;-64
2021/06/06 18:07:14;;;;;;;0.10;0.10;;;;;;;18.61;75.42;102289.66;10546944;28;20016;-65
2021/06/06 18:12:14;;;;;;;0.10;0.10;;;;;;;18.44;75.93;102299.69;10540057;28;20016;-64
2021/06/06 18:17:15;;;;;;;0.10;0.10;;;;;;;18.30;76.66;102307.50;10549910;28;20520;-66
2021/06/06 18:22:18;;;;;;;0.07;0.07;;;;;;;18.20;76.90;102303.31;10566735;28;20031;-65
2021/06/06 18:27:19;;;;;;;0.10;0.10;;;;;;;18.10;77.24;102304.38;10546352;28;20036;-67
2021/06/06 18:32:19;;;;;;;0.10;0.10;;;;;;;18.04;77.93;102309.63;10563776;28;20389;-66
2021/06/06 18:37:19;;;;;;;0.10;0.10;;;;;;;17.95;77.38;102310.63;10548142;28;20395;-66
2021/06/06 18:42:20;;;;;;;0.10;0.10;;;;;;;17.81;78.10;102314.88;10565724;28;20270;-65
2021/06/06 18:47:23;;;;;;;0.10;0.10;;;;;;;17.72;78.18;102326.66;10571770;28;20686;-65
2021/06/06 18:52:24;;;;;;;0.10;0.10;;;;;;;17.64;78.42;102319.41;10548765;28;20019;-65
2021/06/06 18:57:25;;;;;;;0.10;0.10;;;;;;;17.57;78.59;102323.78;10548422;28;20015;-65
2021/06/06 19:02:25;;;;;;;0.10;0.10;;;;;;;17.48;79.28;102314.84;10573154;28;20592;-64
2021/06/06 19:07:26;;;;;;;0.10;0.10;;;;;;;17.41;79.30;102332.72;10549082;28;20500;-65
2021/06/06 19:12:26;;;;;;;0.10;0.10;;;;;;;17.32;79.67;102339.09;10567176;28;20011;-65
2021/06/06 19:17:27;;;;;;;0.10;0.10;;;;;;;17.28;80.13;102337.72;10550920;28;20028;-64
2021/06/06 19:22:27;;;;;;;0.00;0.00;;;;;;;17.23;80.38;102343.63;10572381;22;20035;-61
2021/06/06 19:27:27;;;;;;;0.10;0.10;;;;;;;17.21;80.58;102345.66;10567513;28;20024;-61
2021/06/06 19:32:27;;;;;;;0.10;0.10;;;;;;;17.17;80.68;102345.13;10528481;28;20277;-61
2021/06/06 19:37:28;;;;;;;0.10;0.10;;;;;;;17.11;80.77;102355.75;10527350;28;20012;-63
2021/06/06 19:42:28;;;;;;;0.10;0.10;;;;;;;17.02;81.00;102352.19;10518237;28;20028;-61
2021/06/06 19:47:28;;;;;;;0.10;0.10;;;;;;;16.96;81.21;102363.63;10522450;28;20027;-63
2021/06/06 19:52:30;;;;;;;0.10;0.10;;;;;;;16.89;81.82;102360.72;10515028;28;20056;-64
2021/06/06 19:57:32;;;;;;;0.10;0.10;;;;;;;16.84;82.13;102364.91;10519929;28;20020;-64
2021/06/06 20:02:33;;;;;;;0.10;0.10;;;;;;;16.80;82.21;102358.16;10539591;28;20032;-63
2021/06/06 20:07:33;;;;;;;0.10;0.10;;;;;;;16.74;82.24;102360.47;10539727;28;20020;-63
2021/06/06 20:12:34;;;;;;;0.10;0.10;;;;;;;16.67;82.40;102354.06;10539496;28;20162;-63
2021/06/06 20:17:35;;;;;;;0.10;0.10;;;;;;;16.60;83.26;102358.38;10540058;28;20020;-63
2021/06/06 20:22:35;;;;;;;0.10;0.10;;;;;;;16.53;83.27;102360.03;10538774;28;20036;-62
2021/06/06 20:27:39;;;;;;;0.10;0.10;;;;;;;16.47;83.78;102353.47;10530524;28;20012;-62
2021/06/06 20:32:42;;;;;;;0.10;0.10;;;;;;;16.47;83.72;102355.31;10500930;28;20050;-63
2021/06/06 20:37:42;;;;;;;0.05;0.05;;;;;;;16.40;83.21;102352.41;10529181;28;20051;-63
2021/06/06 20:42:43;;;;;;;0.10;0.10;;;;;;;16.34;83.36;102344.97;10520324;28;20028;-63
2021/06/06 20:47:44;;;;;;;0.10;0.10;;;;;;;16.27;83.79;102347.47;10529773;28;20137;-63
2021/06/06 20:52:44;;;;;;;0.10;0.10;;;;;;;16.25;84.42;102343.25;10514973;28;20016;-63
2021/06/06 20:57:45;;;;;;;0.10;0.10;;;;;;;16.21;84.32;102342.75;10509007;28;20099;-63
2021/06/06 21:02:46;;;;;;;0.10;0.10;;;;;;;16.14;84.01;102341.66;10523208;28;20097;-63
2021/06/06 21:07:47;;;;;;;0.10;0.10;;;;;;;16.04;83.91;102346.31;10525944;28;20038;-62
2021/06/06 21:12:47;;;;;;;0.10;0.10;;;;;;;15.97;84.21;102346.13;10517798;28;20050;-62
2021/06/06 21:17:48;;;;;;;0.10;0.10;;;;;;;15.92;84.40;102358.34;10511508;28;20036;-63
2021/06/06 21:22:49;;;;;;;0.10;0.10;;;;;;;15.83;84.46;102363.66;10515335;28;20028;-63
2021/06/06 21:27:50;;;;;;;0.10;0.10;;;;;;;15.75;84.30;102363.59;10518102;28;20471;-63
2021/06/06 21:32:50;;;;;;;0.10;0.10;;;;;;;15.69;85.00;102361.53;10519009;28;20058;-63
2021/06/06 21:37:50;;;;;;;0.10;0.10;;;;;;;15.65;85.10;102359.25;10525428;28;20114;-62
2021/06/06 21:42:51;;;;;;;0.10;0.10;;;;;;;15.60;85.19;102365.13;10486989;28;20035;-62
2021/06/06 21:47:52;;;;;;;0.10;0.10;;;;;;;15.56;85.23;102369.09;10516215;28;20023;-63
2021/06/06 21:52:53;;;;;;;0.10;0.10;;;;;;;15.50;85.55;102370.53;10500560;28;20426;-62
2021/06/06 21:57:55;;;;;;;0.10;0.10;;;;;;;15.47;85.40;102372.69;10500343;28;20533;-63
2021/06/06 22:02:55;;;;;;;0.17;0.17;;;;;;;15.45;85.70;102380.09;10528155;28;20024;-63
2021/06/06 22:07:57;;;;;;;0.10;0.10;;;;;;;15.44;85.67;102373.00;10527488;28;20102;-63
2021/06/06 22:13:01;;;;;;;0.10;0.10;;;;;;;15.42;85.60;102369.63;10514693;28;20100;-62
2021/06/06 22:18:02;;;;;;;;;;;;;;;15.37;86.23;102365.56;10509607;28;20028;-62
2021/06/06 22:23:40;;;;;;;0.10;0.10;;;;;;;15.36;86.47;102374.63;10508916;28;19959;-63
2021/06/06 22:29:18;;;;;;;0.10;0.10;;;;;;;15.31;86.42;102368.03;10514410;28;20050;-63
2021/06/06 22:34:55;;;;;;;0.10;0.10;;;;;;;15.29;86.72;102378.06;10516934;28;20170;-62
2021/06/06 22:40:33;;;;;;;0.10;0.10;;;;;;;15.25;86.73;102366.81;10511964;28;20031;-63
2021/06/06 22:46:11;;;;;;;0.10;0.10;;;;;;;15.26;87.01;102365.78;10507441;28;20039;-63
2021/06/06 22:51:49;;;;;;;0.20;0.20;;;;;;;15.24;87.56;102367.81;10503156;28;20111;-63
2021/06/06 22:57:27;;;;;;;0.10;0.10;;;;;;;15.22;87.36;102364.41;10496559;28;20031;-62
2021/06/06 23:03:05;;;;;;;0.10;0.10;;;;;;;15.19;87.71;102361.22;10495741;28;20195;-63
2021/06/06 23:08:43;;;;;;;0.10;0.10;;;;;;;15.17;87.64;102358.66;10501332;28;20024;-62
2021/06/06 23:14:21;;;;;;;0.10;0.10;;;;;;;15.16;88.18;102356.97;10497979;28;20472;-62
2021/06/06 23:19:24;;;;;;;0.10;0.10;;;;;;;15.16;87.82;102356.97;10513408;28;20524;-63
2021/06/06 23:24:25;;;;;;;;;;;;;;;15.11;88.48;102361.94;10514390;28;20082;-62
2021/06/06 23:29:26;;;;;;;0.10;0.10;;;;;;;15.09;88.37;102355.88;10502459;28;19908;-62
2021/06/06 23:34:27;;;;;;;0.10;0.10;;;;;;;15.09;88.84;102362.09;10513301;28;20103;-62
2021/06/06 23:39:28;;;;;;;0.10;0.10;;;;;;;15.08;88.64;102348.84;10510577;28;20029;-63